Latest Weather Observations for Cape Willoughby

IDS60801

Issued at 3:31 pm CST Sunday 26 June 2016 (issued every 30 minutes, with the page automatically refreshed every 10 minutes)

About weather observations | Map of weather stations | Latest weather observations for SA | Other Formats
Station Details ID: 022803 Name: CAPE WILLOUGHBY Lat: -35.84 Lon: 138.13 Height: 55.0 m
Data from the previous 72 hours. | See also: Recent months at Cape Willoughby
Date/Time
CST
Temp
°C
App
Temp
°C
Dew
Point
°C
Rel
Hum
%
Delta-T
°C
Wind Press
QNH
hPa
Press
MSL
hPa
Rain since
9am
mm
Dir  Spd
km/h
Gust
km/h
Spd
kts
Gust
kts
26/03:30pm 12.2 5.7 8.1 76 2.0 NNW 32 37 17 20 1014.1 1014.1 0.0
26/03:00pm 13.0 6.9 6.8 66 3.0 NNW 28 39 15 21 1014.1 1014.1 0.0
26/02:30pm 12.8 5.5 7.3 69 2.7 NNW 35 48 19 26 1014.2 1014.2 0.0
26/02:00pm 12.7 6.0 7.4 70 2.6 NNW 32 43 17 23 1014.5 1014.5 0.0
26/01:30pm 12.7 5.9 7.0 68 2.8 NNW 32 43 17 23 1014.8 1014.8 0.0
26/01:00pm 13.2 6.0 7.6 69 2.7 NNW 35 44 19 24 1015.0 1015.0 0.0
26/12:30pm 12.6 4.0 6.6 67 2.9 NNW 41 54 22 29 1015.2 1015.2 0.0
26/12:00pm 13.4 5.9 6.5 63 3.3 NNW 35 50 19 27 1015.5 1015.5 0.0
26/11:46am 13.1 5.9 6.0 62 3.4 NNW 33 52 18 28 1015.9 1015.9 0.0
26/11:30am 12.8 4.5 6.2 64 3.1 NNW 39 52 21 28 1016.2 1016.2 0.0
26/11:00am 13.4 5.3 7.2 66 3.0 NNW 39 48 21 26 1016.5 1016.5 0.0
26/10:30am 13.1 6.1 6.9 66 3.0 NNW 33 48 18 26 1016.8 1016.8 0.0
26/10:00am 12.6 5.3 4.6 58 3.7 NNW 32 44 17 24 1016.9 1016.9 0.0
26/09:30am 12.4 4.1 6.2 66 2.9 NNW 39 50 21 27 1016.6 1016.6 0.0
26/09:00am 12.0 5.6 5.4 64 3.1 NW 28 35 15 19 1016.9 1016.9 0.2
26/08:30am 11.7 4.9 5.3 65 3.0 NNW 30 39 16 21 1016.8 1016.8 0.2
26/08:00am 10.9 5.0 4.1 63 3.0 NW 24 32 13 17 1016.7 1016.7 0.2
26/07:30am 10.6 4.6 3.6 62 3.1 NW 24 32 13 17 1016.8 1016.8 0.2
26/07:00am 10.5 4.2 4.0 64 2.9 NW 26 33 14 18 1016.7 1016.7 0.2
26/06:30am 10.9 5.0 3.9 62 3.1 NNW 24 33 13 18 1016.6 1016.6 0.2
26/06:00am 11.1 3.7 4.8 65 2.9 NW 33 41 18 22 1016.6 1016.6 0.2
26/05:30am 11.4 4.1 5.3 66 2.8 NNW 33 43 18 23 1016.7 1016.7 0.2
26/05:00am 11.3 4.2 5.6 68 2.6 NNW 32 43 17 23 1016.8 1016.8 0.2
26/04:30am 11.3 3.5 4.7 64 3.0 NNW 35 44 19 24 1017.2 1017.2 0.2
26/04:00am 11.5 3.3 4.9 64 3.0 NNW 37 46 20 25 1017.3 1017.3 0.2
26/03:30am 11.5 4.0 4.3 61 3.2 NNW 33 44 18 24 1017.5 1017.5 0.2
26/03:00am 11.8 4.2 3.8 58 3.6 NNW 33 48 18 26 1017.7 1017.7 0.2
26/02:30am 11.6 3.6 3.6 58 3.5 NNW 35 43 19 23 1017.9 1017.9 0.2
26/02:00am 11.4 4.2 3.2 57 3.6 NNW 30 43 16 23 1018.0 1018.0 0.2
26/01:30am 11.2 5.3 3.7 60 3.3 NW 24 33 13 18 1018.6 1018.7 0.2
26/01:00am 11.0 5.0 3.3 59 3.4 NW 24 30 13 16 1018.6 1018.7 0.2
26/12:30am 11.4 4.6 3.2 57 3.6 NW 28 37 15 20 1018.9 1019.0 0.2
26/12:00am 11.3 4.4 4.5 63 3.1 NW 30 41 16 22 1019.0 1019.1 0.2
 
Date/Time
CST
Temp
°C
App
Temp
°C
Dew
Point
°C
Rel
Hum
%
Delta-T
°C
Wind Press
QNH
hPa
Press
MSL
hPa
Rain since
9am
mm
Dir  Spd
km/h
Gust
km/h
Spd
kts
Gust
kts
25/11:30pm 11.6 4.9 5.5 66 2.8 NNW 30 39 16 21 1019.3 1019.4 0.2
25/11:00pm 11.6 4.0 5.9 68 2.7 N 35 43 19 23 1019.3 1019.4 0.2
25/10:30pm 11.5 6.1 6.4 71 2.4 NNW 24 30 13 16 1019.7 1019.8 0.2
25/10:00pm 11.2 6.0 7.1 76 2.0 NNW 24 30 13 16 1019.6 1019.7 0.2
25/09:30pm 11.0 5.9 7.7 80 1.6 NNW 24 30 13 16 1019.7 1019.8 0.2
25/09:00pm 10.3 7.3 7.7 84 1.2 NNW 13 17 7 9 1020.4 1020.4 0.2
25/08:30pm 10.0 6.6 7.8 86 1.1 NNW 15 19 8 10 1020.6 1020.6 0.2
25/08:00pm 9.6 5.2 7.2 85 1.1 NW 20 28 11 15 1021.1 1021.1 0.2
25/07:30pm 9.7 4.6 7.8 88 0.9 NW 24 32 13 17 1021.6 1021.6 0.2
25/07:00pm 9.8 4.0 7.9 88 0.9 NW 28 35 15 19 1021.2 1021.2 0.2
25/06:30pm 10.1 5.1 8.2 88 0.9 NW 24 35 13 19 1020.9 1020.9 0.2
25/06:00pm 11.2 6.0 8.8 85 1.2 NNW 26 43 14 23 1020.9 1020.9 0.2
25/05:30pm 11.7 5.4 7.6 76 2.0 N 30 35 16 19 1020.7 1020.7 0.0
25/05:00pm 11.6 5.5 8.1 79 1.7 NNW 30 37 16 20 1020.9 1020.9 0.0
25/04:30pm 11.6 5.2 7.1 74 2.2 N 30 35 16 19 1020.8 1020.8 0.0
25/04:00pm 12.3 6.4 7.4 72 2.4 N 28 33 15 18 1021.0 1021.0 0.0
25/03:30pm 12.8 7.3 7.7 71 2.5 N 26 33 14 18 1021.2 1021.2 0.0
25/03:00pm 12.9 6.3 7.6 70 2.6 N 32 37 17 20 1021.4 1021.4 0.0
25/02:30pm 12.1 5.1 7.0 71 2.4 NNW 33 37 18 20 1021.4 1021.4 0.0
25/02:00pm 12.3 5.0 7.4 72 2.4 N 35 41 19 22 1021.7 1021.7 0.0
25/01:30pm 12.8 7.0 9.6 81 1.6 N 30 37 16 20 1022.0 1022.0 0.0
25/01:00pm 13.6 8.2 9.5 76 2.1 N 28 35 15 19 1022.4 1022.4 0.0
25/12:30pm 11.9 5.5 8.7 81 1.6 NNW 32 37 17 20 1022.8 1022.8 0.0
25/12:00pm 13.3 7.1 9.4 77 2.0 N 32 35 17 19 1023.5 1023.5 0.0
25/11:30am 12.9 7.5 9.5 80 1.7 N 28 33 15 18 1023.7 1023.7 0.0
25/11:00am 13.3 8.5 9.0 75 2.2 NNW 24 30 13 16 1024.0 1024.0 0.0
25/10:30am 12.8 8.0 8.9 77 2.0 N 24 26 13 14 1024.1 1024.1 0.0
25/10:00am 12.2 7.0 9.0 81 1.6 N 26 30 14 16 1024.2 1024.2 0.0
25/09:30am 12.3 7.1 8.8 79 1.7 NNW 26 30 14 16 1024.0 1024.0 0.0
25/09:00am 11.7 8.1 8.4 80 1.6 NNW 17 24 9 13 1024.0 1024.0 1.2
25/08:30am 10.5 7.2 7.9 84 1.3 NNW 15 19 8 10 1023.9 1023.9 1.2
25/08:00am 9.3 4.9 6.7 84 1.2 NW 19 20 10 11 1023.9 1023.9 1.2
25/07:30am 8.9 4.3 5.5 79 1.5 NW 19 20 10 11 1023.8 1023.8 1.2
25/07:00am 8.8 4.0 5.4 79 1.5 WNW 20 20 11 11 1023.5 1023.5 1.2
25/06:30am 8.8 3.8 4.8 76 1.8 WNW 20 20 11 11 1023.3 1023.3 1.2
25/06:00am 8.7 3.8 5.1 78 1.6 NW 20 20 11 11 1023.1 1023.1 1.2
25/05:30am 8.8 4.1 5.2 78 1.6 WNW 19 20 10 11 1023.1 1023.1 1.2
25/05:00am 9.2 4.6 5.6 78 1.6 WNW 19 19 10 10 1022.9 1022.9 1.2
25/04:30am 9.3 5.1 5.5 77 1.7 WNW 17 19 9 10 1022.9 1022.9 1.2
25/04:00am 9.0 4.4 5.6 79 1.5 WNW 19 22 10 12 1022.8 1022.8 1.2
25/03:30am 9.4 5.6 5.6 77 1.7 WNW 15 22 8 12 1022.8 1022.8 1.2
25/03:00am 8.8 4.0 5.5 80 1.5 WNW 20 22 11 12 1022.6 1022.6 1.2
25/02:30am 8.7 4.1 5.4 80 1.5 WNW 19 20 10 11 1022.8 1022.8 1.2
25/02:00am 8.9 4.7 5.8 81 1.4 WNW 17 19 9 10 1022.7 1022.7 1.2
25/01:30am 8.9 5.4 5.6 80 1.5 W 13 15 7 8 1022.5 1022.5 1.2
25/01:00am 8.7 6.0 5.6 81 1.4 W 9 13 5 7 1022.5 1022.5 1.2
25/12:30am 8.3 4.9 5.8 84 1.1 W 13 15 7 8 1022.7 1022.7 1.2
25/12:00am 9.5 6.1 6.0 79 1.6 W 13 17 7 9 1022.6 1022.6 1.2
 
Date/Time
CST
Temp
°C
App
Temp
°C
Dew
Point
°C
Rel
Hum
%
Delta-T
°C
Wind Press
QNH
hPa
Press
MSL
hPa
Rain since
9am
mm
Dir  Spd
km/h
Gust
km/h
Spd
kts
Gust
kts
24/11:30pm 9.4 6.1 6.3 81 1.4 W 13 17 7 9 1022.5 1022.5 1.2
24/11:00pm 9.5 5.7 5.7 77 1.7 W 15 20 8 11 1022.5 1022.5 1.2
24/10:30pm 9.8 7.0 5.2 73 2.1 W 9 17 5 9 1022.5 1022.5 1.2
24/10:00pm 11.0 6.9 6.2 72 2.2 SW 17 32 9 17 1022.4 1022.4 1.2
24/09:30pm 9.6 5.2 5.0 73 2.1 WNW 17 24 9 13 1022.2 1022.2 1.2
24/09:00pm 11.0 6.2 4.9 66 2.8 SW 19 30 10 16 1022.1 1022.1 1.2
24/08:30pm 11.2 6.6 6.3 72 2.3 SSW 20 35 11 19 1022.0 1022.0 1.2
24/08:00pm 10.9 5.9 4.6 65 2.8 SW 20 28 11 15 1021.6 1021.6 1.2
24/07:30pm 11.5 5.0 4.5 62 3.2 SW 28 35 15 19 1021.1 1021.1 1.2
24/07:00pm 11.5 4.5 4.3 61 3.2 SW 30 41 16 22 1020.6 1020.6 1.2
24/06:30pm 11.4 4.1 4.4 62 3.1 SSW 32 39 17 21 1020.1 1020.1 1.2
24/06:00pm 11.4 4.6 5.1 65 2.9 SSW 30 43 16 23 1019.5 1019.6 1.2
24/05:30pm 11.4 4.8 6.1 70 2.5 S 30 48 16 26 1019.2 1019.3 1.2
24/05:00pm 11.3 3.1 4.5 63 3.1 SW 37 48 20 26 1018.6 1018.7 1.2
24/04:30pm 11.3 2.7 4.7 64 3.0 SSW 39 50 21 27 1018.1 1018.1 1.2
24/04:00pm 11.1 4.0 6.3 72 2.3 SSW 33 48 18 26 1017.8 1017.8 1.2
24/03:47pm 11.7 4.1 5.8 67 2.8 SW 35 56 19 30 1017.4 1017.4 1.2
24/03:30pm 11.6 4.4 5.9 68 2.7 SW 33 43 18 23 1017.4 1017.4 1.2
24/03:00pm 11.3 2.3 4.3 62 3.1 SW 41 52 22 28 1017.0 1017.0 1.2
24/02:30pm 11.1 3.3 4.8 65 2.9 SW 35 50 19 27 1016.8 1016.8 1.2
24/02:00pm 10.1 1.8 6.1 76 1.9 SSW 39 57 21 31 1016.7 1016.7 1.2
24/01:48pm 10.8 2.3 6.9 77 1.9 SSW 41 59 22 32 1016.5 1016.5 1.2
24/01:30pm 10.6 2.0 6.4 75 2.0 SW 41 52 22 28 1016.3 1016.3 1.2
24/01:19pm 9.5 -0.4 6.6 82 1.4 SSW 48 67 26 36 1016.2 1016.2 1.2
24/01:12pm 9.8 0.8 6.5 80 1.5 SSW 43 67 23 36 1016.1 1016.1 1.0
24/01:04pm 11.2 4.4 7.5 78 1.8 SSW 33 54 18 29 1016.2 1016.2 1.0
24/01:00pm 10.9 3.1 6.8 76 1.9 SSW 37 54 20 29 1016.2 1016.2 1.0
24/12:52pm 11.6 4.1 6.1 69 2.6 SW 35 54 19 29 1016.2 1016.2 1.0
24/12:30pm 10.8 2.4 5.8 71 2.3 SW 39 50 21 27 1016.2 1016.2 1.0
24/12:02pm 9.1 -0.7 5.5 78 1.6 SW 46 65 25 35 1016.3 1016.3 1.0
24/12:00pm 8.8 -1.7 5.4 79 1.5 WSW 50 65 27 35 1016.4 1016.4 1.0
24/11:48am 10.4 0.4 6.0 74 2.0 SW 48 70 26 38 1016.1 1016.1 0.2
24/11:30am 10.7 0.7 4.2 64 2.9 SW 46 61 25 33 1015.7 1015.7 0.2
24/11:06am 8.8 -1.2 4.2 73 2.0 SW 46 74 25 40 1015.9 1015.9 0.2
24/11:03am 8.9 -0.1 4.7 75 1.9 SW 41 74 22 40 1015.7 1015.7 0.2
24/11:01am 10.6 3.2 6.7 77 1.8 SW 35 59 19 32 1015.8 1015.8 0.0
24/11:00am 10.8 3.7 6.4 74 2.1 SW 33 48 18 26 1015.9 1015.9 0.0
24/10:44am 9.1 -0.2 4.9 75 1.9 SW 43 57 23 31 1015.7 1015.7 0.0
24/10:33am 9.6 -2.8 4.8 72 2.2 SSW 59 78 32 42 1015.1 1015.1 0.0
24/10:30am 9.7 -3.4 4.9 72 2.2 SSW 63 78 34 42 1015.0 1015.0 0.0
24/10:20am 10.6 -0.6 4.1 64 2.9 SSW 52 76 28 41 1014.3 1014.3 0.0
24/10:00am 11.1 -0.9 3.6 60 3.3 SW 56 69 30 37 1014.0 1014.0 0.0
24/09:30am 10.3 -1.9 3.8 64 2.9 SW 57 78 31 42 1013.5 1013.5 0.0
24/09:06am 10.5 -1.3 2.6 58 3.4 SW 54 78 29 42 1012.3 1012.3 0.0
24/09:00am 10.0 -0.4 4.2 67 2.6 SW 48 67 26 36 1012.8 1012.8 17.2
24/08:55am 9.5 -2.5 3.5 66 2.6 SW 56 85 30 46 1012.8 1012.8 17.2
24/08:49am 8.9 -6.2 1.3 59 3.1 SW 70 93 38 50 1012.4 1012.4 17.2
24/08:42am 9.2 -3.5 2.8 64 2.7 SW 59 93 32 50 1011.9 1011.9 17.0
24/08:40am 10.4 -1.5 4.1 65 2.8 SW 56 93 30 50 1012.3 1012.3 17.0
24/08:30am 9.7 -2.0 3.2 64 2.8 SW 54 72 29 39 1012.2 1012.2 17.0
24/08:08am 10.1 -1.4 4.5 68 2.5 SW 54 82 29 44 1011.5 1011.5 17.0
24/08:00am 10.2 -1.6 3.0 61 3.1 SW 54 70 29 38 1011.2 1011.2 17.0
24/07:30am 10.4 -2.7 2.7 59 3.3 SW 61 76 33 41 1010.1 1010.1 17.0
24/07:09am 9.4 -2.7 4.4 71 2.2 SW 57 83 31 45 1009.9 1009.9 17.0
24/07:05am 9.9 -1.2 4.5 69 2.4 SW 52 83 28 45 1009.4 1009.4 17.0
24/07:02am 9.6 -0.3 5.0 73 2.1 WSW 46 70 25 38 1009.8 1009.8 17.0
24/07:00am 9.3 -1.0 4.5 72 2.1 WSW 48 63 26 34 1009.9 1009.9 17.0
24/06:30am 9.4 -0.5 2.7 63 2.9 WSW 44 59 24 32 1009.5 1009.5 16.8
24/06:03am 9.3 -0.8 3.7 68 2.4 SW 46 69 25 37 1008.5 1008.5 16.8
24/06:00am 9.0 -0.6 4.4 73 2.0 WSW 44 61 24 33 1008.7 1008.7 16.8
24/05:30am 7.5 -2.2 3.9 78 1.6 WSW 44 65 24 35 1008.5 1008.5 16.8
24/05:16am 8.0 -2.0 4.2 77 1.7 WSW 46 72 25 39 1008.2 1008.2 16.8
24/05:00am 8.6 -1.3 4.6 76 1.8 WSW 46 57 25 31 1008.0 1008.0 16.8
24/04:48am 8.3 -2.6 3.8 73 1.9 WSW 50 69 27 37 1007.8 1007.8 16.8
24/04:32am 8.5 -3.4 4.3 75 1.8 WSW 56 87 30 47 1007.1 1007.1 16.8
24/04:30am 8.7 -2.5 3.9 72 2.1 WSW 52 87 28 47 1006.9 1006.9 16.8
24/04:02am 10.1 0.3 3.2 62 3.0 WSW 44 69 24 37 1006.6 1006.6 16.0
24/04:00am 10.2 0.3 3.0 61 3.1 WSW 44 57 24 31 1006.4 1006.4 16.0
24/03:30am 10.1 -1.1 5.7 74 2.0 SW 54 78 29 42 1005.7 1005.7 16.0
24/03:04am 10.1 -1.0 4.7 69 2.4 SW 52 70 28 38 1005.3 1005.3 16.0
24/03:00am 9.7 -2.0 3.4 65 2.8 SW 54 67 29 36 1005.3 1005.3 16.0
24/02:43am 8.5 -0.1 4.5 76 1.8 WSW 39 57 21 31 1005.4 1005.4 16.0
24/02:30am 8.8 -0.9 4.0 72 2.1 WSW 44 59 24 32 1005.3 1005.3 15.8
24/02:05am 8.4 -0.7 5.7 83 1.2 WSW 43 72 23 39 1004.6 1004.6 15.8
24/02:00am 7.2 -0.8 5.5 89 0.8 W 37 50 20 27 1005.1 1005.1 15.8
24/01:38am 7.3 -0.3 5.6 89 0.8 WSW 35 54 19 29 1004.7 1004.7 14.2
24/01:30am 6.7 -0.4 5.3 91 0.6 W 32 48 17 26 1004.7 1004.7 14.2
24/01:08am 6.8 -0.4 5.1 89 0.7 W 32 50 17 27 1004.8 1004.8 12.4
24/01:00am 6.7 -2.2 5.0 89 0.7 W 41 50 22 27 1004.9 1004.9 12.2
24/12:50am 6.6 -2.9 5.1 90 0.7 WSW 44 65 24 35 1005.0 1005.0 11.8
24/12:42am 7.2 -1.4 4.9 85 1.0 WSW 39 65 21 35 1005.1 1005.1 10.8
24/12:40am 7.7 0.3 5.2 84 1.1 WSW 33 63 18 34 1005.2 1005.2 10.4
24/12:30am 7.5 0.0 4.5 81 1.3 W 33 44 18 24 1004.7 1004.7 10.2
24/12:00am 7.4 0.0 4.2 80 1.4 W 32 39 17 21 1004.2 1004.2 10.2
 
Date/Time
CST
Temp
°C
App
Temp
°C
Dew
Point
°C
Rel
Hum
%
Delta-T
°C
Wind Press
QNH
hPa
Press
MSL
hPa
Rain since
9am
mm
Dir  Spd
km/h
Gust
km/h
Spd
kts
Gust
kts
23/11:35pm 7.7 0.8 4.7 81 1.3 W 30 50 16 27 1004.6 1004.6 10.2
23/11:30pm 7.4 1.3 4.7 83 1.2 W 26 33 14 18 1004.5 1004.5 10.2
23/11:00pm 7.5 2.1 4.5 81 1.3 W 22 30 12 16 1004.2 1004.2 10.2
23/10:39pm 7.8 0.3 4.7 81 1.4 W 33 57 18 31 1004.4 1004.4 9.8
23/10:30pm 7.5 1.6 5.6 88 0.9 WNW 26 35 14 19 1004.4 1004.4 9.6
23/10:00pm 7.7 1.4 5.8 88 0.9 WNW 28 35 15 19 1004.1 1004.1 9.6
23/09:30pm 7.3 0.2 5.3 87 0.9 W 32 41 17 22 1004.1 1004.1 9.6
23/09:00pm 7.0 0.2 5.3 89 0.8 WNW 30 39 16 21 1003.5 1003.5 9.6
23/08:30pm 6.8 0.4 5.3 90 0.7 WNW 28 35 15 19 1003.2 1003.1 9.6
23/08:00pm 7.5 1.1 5.3 86 1.0 WSW 28 43 15 23 1003.0 1002.9 9.6
23/07:30pm 7.1 1.1 5.1 87 0.9 W 26 33 14 18 1003.2 1003.1 8.2
23/07:00pm 7.6 1.2 5.4 86 1.0 W 28 35 15 19 1002.7 1002.6 8.2
23/06:33pm 9.4 2.9 6.3 81 1.4 WNW 30 54 16 29 1002.8 1002.7 8.0
23/06:30pm 9.4 3.7 6.5 82 1.4 WNW 26 33 14 18 1002.5 1002.4 7.8
23/06:00pm 8.8 3.8 6.4 85 1.1 NW 22 26 12 14 1002.0 1001.9 7.8
23/05:30pm 8.7 4.2 6.8 88 0.9 NW 20 22 11 12 1001.7 1001.6 7.8
23/05:00pm 9.2 4.9 6.8 85 1.1 WNW 19 24 10 13 1001.2 1001.2 7.8
23/04:30pm 10.0 4.8 7.3 83 1.3 W 24 33 13 18 1001.8 1001.7 7.8
23/04:00pm 9.8 4.2 7.1 83 1.3 W 26 32 14 17 1001.1 1001.1 7.8

Other Formats:

Comma delimited format used in spreadsheet applications
http://www.bom.gov.au/fwo/IDS60801/IDS60801.94822.axf

JavaScript Object Notation format (JSON) in row-major order
http://www.bom.gov.au/fwo/IDS60801/IDS60801.94822.json